createdAt,value
2023-05-05T00:02:10.256Z,100980.78
2023-05-05T00:04:36.655Z,100973.00
2023-05-05T00:07:02.989Z,100971.78
2023-05-05T00:09:29.386Z,100962.06
2023-05-05T00:11:55.748Z,100963.56
2023-05-05T00:14:22.067Z,100960.06
2023-05-05T00:16:48.482Z,100960.84
2023-05-05T00:19:14.862Z,100969.50
2023-05-05T00:21:41.187Z,100966.75
2023-05-05T00:24:07.534Z,100965.25
2023-05-05T00:26:33.836Z,100964.50
2023-05-05T00:29:00.197Z,100962.19
2023-05-05T00:31:26.596Z,100955.03
2023-05-05T00:33:53.026Z,100951.09
2023-05-05T00:36:19.390Z,100946.84
2023-05-05T00:38:45.708Z,100946.25
2023-05-05T00:41:12.053Z,100940.31
2023-05-05T00:43:38.349Z,100946.53
2023-05-05T00:46:04.688Z,100947.31
2023-05-05T00:48:31.017Z,100952.31
2023-05-05T00:50:57.320Z,100951.72
2023-05-05T00:53:23.681Z,100955.53
2023-05-05T00:55:50.002Z,100961.44
2023-05-05T00:58:16.317Z,100971.47
2023-05-05T01:00:42.648Z,100962.19
2023-05-05T01:03:09.073Z,100962.19
2023-05-05T01:05:35.528Z,100960.66
2023-05-05T01:08:01.889Z,100959.16
2023-05-05T01:10:28.241Z,100967.66
2023-05-05T01:12:54.649Z,100957.19
2023-05-05T01:15:21.052Z,100954.47
2023-05-05T01:17:47.369Z,100948.22
2023-05-05T01:20:13.881Z,100953.38
2023-05-05T01:22:40.248Z,100952.47
2023-05-05T01:25:06.606Z,100952.47
2023-05-05T01:27:32.970Z,100941.97
2023-05-05T01:29:59.339Z,100936.94
2023-05-05T01:32:25.753Z,100925.56
2023-05-05T01:34:52.101Z,100938.19
2023-05-05T01:37:18.456Z,100939.25
2023-05-05T01:39:44.816Z,100931.78
2023-05-05T01:42:11.191Z,100924.03
2023-05-05T01:44:37.533Z,100910.34
2023-05-05T01:47:03.844Z,100905.63
2023-05-05T01:49:30.190Z,100909.28
2023-05-05T01:51:56.537Z,100911.88
2023-05-05T01:54:22.918Z,100911.56
2023-05-05T01:56:49.248Z,100924.03
2023-05-05T01:59:15.579Z,100939.69
2023-05-05T02:01:41.973Z,100932.25
2023-05-05T02:04:08.273Z,100928.44
2023-05-05T02:06:34.645Z,100929.97
2023-05-05T02:09:01.018Z,100924.50
2023-05-05T02:11:27.370Z,100912.03
2023-05-05T02:13:53.743Z,100916.28
2023-05-05T02:16:20.233Z,100910.97
2023-05-05T02:18:46.660Z,100926.16
2023-05-05T02:21:12.960Z,100926.47
2023-05-05T02:23:39.264Z,100931.63
2023-05-05T02:26:05.624Z,100946.41
2023-05-05T02:28:32.001Z,100950.78
2023-05-05T02:30:58.402Z,100959.00
2023-05-05T02:33:24.732Z,100954.75
2023-05-05T02:35:51.078Z,100950.06
2023-05-05T02:38:17.456Z,100946.53
2023-05-05T02:40:43.785Z,100950.34
2023-05-05T02:43:10.090Z,100958.25
2023-05-05T02:45:36.439Z,100940.00
2023-05-05T02:48:02.781Z,100947.00
2023-05-05T02:50:29.142Z,100938.78
2023-05-05T02:52:55.470Z,100943.03
2023-05-05T02:55:21.770Z,100937.56
2023-05-05T02:57:48.167Z,100938.78
2023-05-05T03:00:14.467Z,100938.00
2023-05-05T03:02:40.846Z,100940.31
2023-05-05T03:05:07.237Z,100940.75
2023-05-05T03:07:33.555Z,100934.50
2023-05-05T03:09:59.934Z,100927.53
2023-05-05T03:12:26.275Z,100926.63
2023-05-05T03:14:52.622Z,100913.38
2023-05-05T03:17:18.937Z,100913.25
2023-05-05T03:19:45.225Z,100909.59
2023-05-05T03:22:11.584Z,100909.16
2023-05-05T03:24:37.922Z,100910.97
2023-05-05T03:27:04.243Z,100924.34
2023-05-05T03:29:30.617Z,100935.75
2023-05-05T03:31:56.970Z,100944.72
2023-05-05T03:34:23.327Z,100947.00
2023-05-05T03:36:49.644Z,100950.19
2023-05-05T03:39:15.987Z,100950.63
2023-05-05T03:41:42.353Z,100955.66
2023-05-05T03:44:08.718Z,100957.31
2023-05-05T03:46:35.117Z,100960.53
2023-05-05T03:49:01.416Z,100959.16
2023-05-05T03:51:27.748Z,100956.88
2023-05-05T03:53:54.060Z,100968.88
2023-05-05T03:56:20.364Z,100966.63
2023-05-05T03:58:46.676Z,100967.81
2023-05-05T04:01:13.053Z,100966.63
2023-05-05T04:03:39.457Z,100971.75
2023-05-05T04:06:05.828Z,100981.66
2023-05-05T04:08:32.187Z,100984.38
2023-05-05T04:10:58.523Z,100995.34
2023-05-05T04:13:24.834Z,100979.22
2023-05-05T04:15:51.196Z,100982.28
2023-05-05T04:18:17.598Z,100984.84
2023-05-05T04:20:43.969Z,100987.41
2023-05-05T04:23:10.353Z,100996.41
2023-05-05T04:25:36.678Z,100992.59
2023-05-05T04:28:03.022Z,100993.66
2023-05-05T04:30:29.389Z,100997.59
2023-05-05T04:32:55.740Z,100993.81
2023-05-05T04:35:22.152Z,100996.53
2023-05-05T04:37:48.457Z,100999.28
2023-05-05T04:40:14.775Z,101000.03
2023-05-05T04:42:41.172Z,101000.81
2023-05-05T04:45:07.557Z,101000.47
2023-05-05T04:47:33.862Z,100998.84
2023-05-05T04:50:00.269Z,101003.53
2023-05-05T04:52:26.570Z,101002.47
2023-05-05T04:54:52.887Z,101000.47
2023-05-05T04:57:19.204Z,101000.81
2023-05-05T04:59:45.551Z,101002.94
2023-05-05T05:02:11.929Z,101005.50
2023-05-05T05:04:38.316Z,101012.81
2023-05-05T05:07:04.738Z,101018.44
2023-05-05T05:09:31.045Z,101009.94
2023-05-05T05:11:57.336Z,101016.59
2023-05-05T05:14:23.647Z,101005.66
2023-05-05T05:16:49.958Z,101008.69
2023-05-05T05:19:16.374Z,101000.47
2023-05-05T05:21:42.693Z,100996.53
2023-05-05T05:24:09.030Z,101009.94
2023-05-05T05:26:35.365Z,101009.16
2023-05-05T05:29:01.718Z,101007.97
2023-05-05T05:31:28.085Z,101020.88
2023-05-05T05:33:54.426Z,101021.50
2023-05-05T05:36:20.775Z,101023.59
2023-05-05T05:38:47.140Z,101022.38
2023-05-05T05:41:13.446Z,101029.53
2023-05-05T05:43:39.747Z,101021.63
2023-05-05T05:46:08.918Z,101020.88
2023-05-05T05:48:35.607Z,101016.91
2023-05-05T05:51:01.979Z,101025.44
2023-05-05T05:53:28.357Z,101031.34
2023-05-05T05:55:54.699Z,101033.66
2023-05-05T05:58:21.008Z,101034.22
2023-05-05T06:00:47.368Z,101035.31
2023-05-05T06:03:13.868Z,101046.56
2023-05-05T06:05:40.337Z,101044.72
2023-05-05T06:08:06.727Z,101051.88
2023-05-05T06:10:33.236Z,101035.75
2023-05-05T06:13:00.232Z,101049.00
2023-05-05T06:15:26.703Z,101045.66
2023-05-05T06:17:53.044Z,101054.63
2023-05-05T06:20:19.416Z,101057.94
2023-05-05T06:22:45.886Z,101056.88
2023-05-05T06:25:12.257Z,101065.84
2023-05-05T06:27:38.596Z,101058.09
2023-05-05T06:30:04.971Z,101061.59
2023-05-05T06:32:31.304Z,101058.41
2023-05-05T06:34:57.706Z,101053.72
2023-05-05T06:37:24.114Z,101047.00
2023-05-05T06:39:50.486Z,101040.03
2023-05-05T06:42:16.852Z,101040.47
2023-05-05T06:44:43.203Z,101031.81
2023-05-05T06:47:09.547Z,101031.81
2023-05-05T06:49:35.893Z,101038.50
2023-05-05T06:52:02.262Z,101038.78
2023-05-05T06:54:28.644Z,101038.78
2023-05-05T06:56:55.050Z,101035.75
2023-05-05T06:59:21.435Z,101043.06
2023-05-05T07:01:47.748Z,101049.44
2023-05-05T07:04:14.125Z,101057.94
2023-05-05T07:06:40.549Z,101049.00
2023-05-05T07:09:06.881Z,101053.25
2023-05-05T07:11:33.223Z,101065.84
2023-05-05T07:13:59.527Z,101059.19
2023-05-05T07:16:25.891Z,101059.63
2023-05-05T07:18:52.344Z,101058.41
2023-05-05T07:21:18.704Z,101065.56
2023-05-05T07:23:45.073Z,101057.34
2023-05-05T07:26:11.475Z,101065.09
2023-05-05T07:28:37.794Z,101060.69
2023-05-05T07:31:04.108Z,101055.22
2023-05-05T07:33:30.488Z,101035.75
2023-05-05T07:35:56.792Z,101064.03
2023-05-05T07:38:23.169Z,101057.22
2023-05-05T07:40:49.465Z,101044.25
2023-05-05T07:43:15.772Z,101033.31
2023-05-05T07:45:42.166Z,101037.59
2023-05-05T07:48:08.570Z,101039.56
2023-05-05T07:50:35.006Z,101041.22
2023-05-05T07:53:10.935Z,101045.03
2023-05-05T07:55:41.077Z,101049.44
2023-05-05T07:58:07.422Z,101054.47
2023-05-05T08:00:33.781Z,101073.16
2023-05-05T08:03:00.311Z,101071.06
2023-05-05T08:05:26.760Z,101082.91
2023-05-05T08:07:53.063Z,101087.91
2023-05-05T08:10:19.407Z,101086.69
2023-05-05T08:12:45.761Z,101087.16
2023-05-05T08:15:12.182Z,101095.38
2023-05-05T08:17:38.704Z,101086.25
2023-05-05T08:20:05.114Z,101076.97
2023-05-05T08:22:31.484Z,101077.28
2023-05-05T08:24:57.836Z,101082.44
2023-05-05T08:27:24.146Z,101082.75
2023-05-05T08:29:50.519Z,101087.03
2023-05-05T08:32:16.897Z,101086.25
2023-05-05T08:34:43.212Z,101082.28
2023-05-05T08:37:09.623Z,101081.09
2023-05-05T08:39:35.930Z,101083.75
2023-05-05T08:42:02.314Z,101080.75
2023-05-05T08:44:28.630Z,101081.22
2023-05-05T08:46:54.984Z,101084.88
2023-05-05T08:49:21.357Z,101092.34
2023-05-05T08:51:47.694Z,101074.84
2023-05-05T08:54:14.041Z,101083.97
2023-05-05T08:56:40.389Z,101075.28
2023-05-05T08:59:06.692Z,101074.50
2023-05-05T09:01:32.985Z,101082.31
2023-05-05T09:03:59.332Z,101075.88
2023-05-05T09:06:25.698Z,101087.03
2023-05-05T09:08:52.083Z,101088.38
2023-05-05T09:11:18.393Z,101091.41
2023-05-05T09:13:47.647Z,101093.53
2023-05-05T09:16:13.934Z,101092.81
2023-05-05T09:18:40.248Z,101087.00
2023-05-05T09:21:06.585Z,101085.19
2023-05-05T09:23:32.866Z,101091.13
2023-05-05T09:25:59.169Z,101083.66
2023-05-05T09:28:25.492Z,101082.00
2023-05-05T09:30:51.814Z,101069.06
2023-05-05T09:33:18.153Z,101068.72
2023-05-05T09:35:44.453Z,101074.06
2023-05-05T09:38:10.826Z,101070.56
2023-05-05T09:40:37.170Z,101073.28
2023-05-05T09:43:03.530Z,101067.97
2023-05-05T09:45:29.860Z,101069.16
2023-05-05T09:47:59.792Z,101068.81
2023-05-05T09:50:27.013Z,101068.09
2023-05-05T09:52:53.467Z,101045.56
2023-05-05T09:55:19.815Z,101054.88
2023-05-05T09:57:46.117Z,101052.41
2023-05-05T10:00:12.475Z,101047.34
2023-05-05T10:02:38.944Z,101031.66
2023-05-05T10:05:05.331Z,101026.19
2023-05-05T10:07:31.685Z,101019.16
2023-05-05T10:09:58.003Z,101023.13
2023-05-05T10:12:24.367Z,101018.13
2023-05-05T10:14:50.698Z,101019.16
2023-05-05T10:17:17.044Z,101016.63
2023-05-05T10:19:43.383Z,101018.41
2023-05-05T10:22:09.705Z,101010.19
2023-05-05T10:24:36.108Z,101014.31
2023-05-05T10:27:02.470Z,101011.88
2023-05-05T10:29:28.792Z,101010.34
2023-05-05T10:31:55.181Z,101010.19
2023-05-05T10:34:21.604Z,101013.56
2023-05-05T10:36:48.024Z,101013.69
2023-05-05T10:39:14.387Z,101024.69
2023-05-05T10:41:40.749Z,101016.19
2023-05-05T10:44:07.123Z,101018.50
2023-05-05T10:46:33.539Z,101006.31
2023-05-05T10:48:59.947Z,101001.44
2023-05-05T10:51:38.465Z,101004.31
2023-05-05T10:54:06.231Z,100995.19
2023-05-05T10:56:32.589Z,101001.72
2023-05-05T10:59:00.605Z,100995.81
2023-05-05T11:01:27.246Z,100991.25
2023-05-05T11:03:53.678Z,100986.97
2023-05-05T11:06:21.002Z,100988.63
2023-05-05T11:08:47.314Z,100979.19
2023-05-05T11:11:13.650Z,100969.00
2023-05-05T11:13:40.064Z,100977.38
2023-05-05T11:16:06.410Z,100965.94
2023-05-05T11:18:32.910Z,100968.56
2023-05-05T11:20:59.260Z,100975.56
2023-05-05T11:23:25.565Z,100968.59
2023-05-05T11:25:51.857Z,100974.53
2023-05-05T11:28:18.214Z,100964.00
2023-05-05T11:30:44.562Z,100963.72
2023-05-05T11:33:10.959Z,100967.69
2023-05-05T11:35:37.264Z,100959.16
2023-05-05T11:38:03.626Z,100964.94
2023-05-05T11:40:29.992Z,100970.09
2023-05-05T11:42:56.305Z,100955.78
2023-05-05T11:45:22.712Z,100951.81
2023-05-05T11:47:49.094Z,100954.22
2023-05-05T11:50:15.450Z,100951.19
2023-05-05T11:52:41.763Z,100952.44
2023-05-05T11:55:08.114Z,100943.13
2023-05-05T11:57:34.443Z,100946.97
2023-05-05T12:00:00.812Z,100933.84
2023-05-05T12:02:27.177Z,100942.09
2023-05-05T12:04:53.589Z,100931.28
2023-05-05T12:07:20.034Z,100940.06
2023-05-05T12:09:46.429Z,100918.31
2023-05-05T12:12:12.781Z,100924.72
2023-05-05T12:14:39.088Z,100920.94
2023-05-05T12:17:05.438Z,100930.19
2023-05-05T12:19:31.779Z,100915.88
2023-05-05T12:21:58.122Z,100922.28
2023-05-05T12:24:24.444Z,100921.69
2023-05-05T12:26:50.775Z,100919.59
2023-05-05T12:29:17.089Z,100922.94
2023-05-05T12:31:43.422Z,100918.63
2023-05-05T12:34:09.822Z,100921.38
2023-05-05T12:36:36.211Z,100906.78
2023-05-05T12:39:02.562Z,100907.41
2023-05-05T12:41:28.877Z,100904.19
2023-05-05T12:43:55.170Z,100911.66
2023-05-05T12:46:21.481Z,100907.84
2023-05-05T12:48:48.533Z,100901.31
2023-05-05T12:51:14.989Z,100899.22
2023-05-05T12:53:41.429Z,100901.31
2023-05-05T12:56:07.774Z,100906.47
2023-05-05T12:58:34.061Z,100905.75
2023-05-05T13:01:00.551Z,100891.00
2023-05-05T13:03:27.056Z,100896.59
2023-05-05T13:05:53.443Z,100885.19
2023-05-05T13:08:19.759Z,100890.19
2023-05-05T13:10:46.137Z,100886.13
2023-05-05T13:13:12.560Z,100884.75
2023-05-05T13:15:38.958Z,100884.28
2023-05-05T13:18:05.317Z,100881.84
2023-05-05T13:20:31.732Z,100874.56
2023-05-05T13:22:58.100Z,100875.16
2023-05-05T13:25:24.548Z,100871.50
2023-05-05T13:27:50.868Z,100863.00
2023-05-05T13:30:17.217Z,100870.00
2023-05-05T13:32:43.560Z,100867.56
2023-05-05T13:35:10.330Z,100866.19
2023-05-05T13:37:37.210Z,100867.88
2023-05-05T13:40:03.554Z,100856.59
2023-05-05T13:42:29.924Z,100855.06
2023-05-05T13:44:56.249Z,100866.03
2023-05-05T13:47:22.804Z,100866.63
2023-05-05T13:49:49.298Z,100858.84
2023-05-05T13:52:15.611Z,100859.50
2023-05-05T13:54:41.994Z,100859.34
2023-05-05T13:57:08.334Z,100863.44
2023-05-05T13:59:34.797Z,100865.41
2023-05-05T14:02:01.153Z,100854.13
2023-05-05T14:04:27.598Z,100859.19
2023-05-05T14:06:53.972Z,100843.66
2023-05-05T14:09:20.273Z,100852.94
2023-05-05T14:11:46.629Z,100839.72
2023-05-05T14:14:12.984Z,100853.84
2023-05-05T14:16:39.370Z,100847.59
2023-05-05T14:19:05.750Z,100838.50
2023-05-05T14:21:32.058Z,100845.97
2023-05-05T14:23:58.395Z,100847.59
2023-05-05T14:26:24.748Z,100845.47
2023-05-05T14:28:51.133Z,100847.81
2023-05-05T14:31:17.548Z,100850.50
2023-05-05T14:33:43.907Z,100842.75
2023-05-05T14:36:10.276Z,100848.69
2023-05-05T14:38:36.675Z,100856.00
2023-05-05T14:41:03.033Z,100847.50
2023-05-05T14:43:29.389Z,100852.81
2023-05-05T14:45:55.729Z,100849.47
2023-05-05T14:48:22.086Z,100838.94
2023-05-05T14:50:48.444Z,100846.41
2023-05-05T14:53:14.748Z,100840.16
2023-05-05T14:55:41.091Z,100846.56
2023-05-05T14:58:07.424Z,100840.78
2023-05-05T15:00:33.716Z,100838.50
2023-05-05T15:03:00.084Z,100845.81
2023-05-05T15:05:26.542Z,100835.59
2023-05-05T15:07:52.884Z,100854.00
2023-05-05T15:10:21.688Z,100838.00
2023-05-05T15:12:48.368Z,100847.94
2023-05-05T15:15:14.710Z,100849.91
2023-05-05T15:17:41.107Z,100844.09
2023-05-05T15:20:07.415Z,100854.44
2023-05-05T15:22:33.764Z,100851.72
2023-05-05T15:25:00.187Z,100862.06
2023-05-05T15:27:26.610Z,100853.38
2023-05-05T15:29:52.964Z,100863.59
2023-05-05T15:32:19.298Z,100869.06
2023-05-05T15:34:46.798Z,100868.00
2023-05-05T15:37:15.176Z,100879.13
2023-05-05T15:39:41.561Z,100880.53
2023-05-05T15:42:07.914Z,100869.41
2023-05-05T15:44:34.245Z,100872.69
2023-05-05T15:47:00.628Z,100877.28
2023-05-05T15:49:27.141Z,100879.28
2023-05-05T15:51:53.449Z,100876.06
2023-05-05T15:54:19.788Z,100875.28
2023-05-05T15:56:46.107Z,100873.63
2023-05-05T15:59:12.448Z,100873.19
2023-05-05T16:01:38.954Z,100871.50
2023-05-05T16:04:05.352Z,100867.72
2023-05-05T16:06:31.919Z,100868.75
2023-05-05T16:08:58.288Z,100869.97
2023-05-05T16:11:24.595Z,100866.91
2023-05-05T16:13:50.943Z,100868.59
2023-05-05T16:16:17.257Z,100872.88
2023-05-05T16:18:43.662Z,100873.47
2023-05-05T16:21:09.962Z,100867.50
2023-05-05T16:23:36.532Z,100869.97
2023-05-05T16:26:02.866Z,100873.78
2023-05-05T16:28:29.206Z,100870.88
2023-05-05T16:30:55.502Z,100872.38
2023-05-05T16:33:21.848Z,100870.28
2023-05-05T16:35:48.182Z,100872.38
2023-05-05T16:38:14.496Z,100868.28
2023-05-05T16:40:40.871Z,100869.47
2023-05-05T16:43:07.236Z,100871.50
2023-05-05T16:45:33.591Z,100868.09
2023-05-05T16:47:59.953Z,100862.47
2023-05-05T16:50:26.352Z,100862.19
2023-05-05T16:52:52.692Z,100865.53
2023-05-05T16:55:19.072Z,100862.19
2023-05-05T16:57:45.411Z,100862.34
2023-05-05T17:00:11.742Z,100860.53
2023-05-05T17:02:38.069Z,100852.94
2023-05-05T17:05:04.559Z,100850.19
2023-05-05T17:07:30.942Z,100855.06
2023-05-05T17:09:57.241Z,100853.84
2023-05-05T17:12:23.560Z,100852.31
2023-05-05T17:14:49.971Z,100858.72
2023-05-05T17:17:16.288Z,100869.97
2023-05-05T17:19:42.651Z,100861.31
2023-05-05T17:22:09.047Z,100874.56
2023-05-05T17:24:35.429Z,100881.84
2023-05-05T17:27:01.806Z,100885.22
2023-05-05T17:29:28.113Z,100895.88
2023-05-05T17:31:54.502Z,100899.22
2023-05-05T17:34:20.937Z,100896.19
2023-05-05T17:36:47.352Z,100890.41
2023-05-05T17:39:13.723Z,100891.03
2023-05-05T17:41:40.059Z,100896.03
2023-05-05T17:44:06.354Z,100884.63
2023-05-05T17:46:32.696Z,100885.41
2023-05-05T17:48:59.093Z,100883.09
2023-05-05T17:51:25.426Z,100884.91
2023-05-05T17:53:51.788Z,100886.88
2023-05-05T17:56:18.149Z,100884.91
2023-05-05T17:58:44.500Z,100890.41
2023-05-05T18:01:10.954Z,100891.31
2023-05-05T18:03:39.954Z,100892.09
2023-05-05T18:06:07.129Z,100889.63
2023-05-05T18:08:33.423Z,100898.78
2023-05-05T18:10:59.760Z,100900.59
2023-05-05T18:13:26.075Z,100902.13
2023-05-05T18:15:52.394Z,100904.09
2023-05-05T18:18:18.770Z,100896.19
2023-05-05T18:20:45.129Z,100901.97
2023-05-05T18:23:11.512Z,100901.50
2023-05-05T18:25:37.833Z,100899.84
2023-05-05T18:28:04.219Z,100902.75
2023-05-05T18:30:30.577Z,100901.81
2023-05-05T18:32:56.997Z,100904.56
2023-05-05T18:35:23.366Z,100906.69
2023-05-05T18:37:49.693Z,100915.19
2023-05-05T18:40:16.078Z,100901.50
2023-05-05T18:42:42.446Z,100900.75
2023-05-05T18:45:08.922Z,100896.94
2023-05-05T18:47:35.400Z,100902.28
2023-05-05T18:50:01.824Z,100901.97
2023-05-05T18:52:28.144Z,100909.88
2023-05-05T18:54:54.461Z,100916.59
2023-05-05T18:57:20.842Z,100916.59
2023-05-05T18:59:47.205Z,100920.25
2023-05-05T19:02:13.536Z,100921.31
2023-05-05T19:04:39.912Z,100925.59
2023-05-05T19:07:06.233Z,100920.38
2023-05-05T19:09:32.634Z,100929.06
2023-05-05T19:11:59.000Z,100929.53
2023-05-05T19:14:25.323Z,100943.97
2023-05-05T19:16:51.702Z,100943.81
2023-05-05T19:19:18.061Z,100943.66
2023-05-05T19:21:44.434Z,100940.94
2023-05-05T19:24:10.809Z,100935.94
2023-05-05T19:26:37.188Z,100940.16
2023-05-05T19:29:03.637Z,100935.16
2023-05-05T19:31:30.200Z,100940.63
2023-05-05T19:33:56.569Z,100958.59
2023-05-05T19:36:22.982Z,100958.28
2023-05-05T19:38:49.294Z,100966.03
2023-05-05T19:41:15.638Z,100962.53
2023-05-05T19:43:41.963Z,100966.50
2023-05-05T19:46:08.364Z,100973.19
2023-05-05T19:48:34.783Z,100963.75
2023-05-05T19:51:01.152Z,100964.97
2023-05-05T19:53:27.478Z,100972.72
2023-05-05T19:55:53.779Z,100988.41
2023-05-05T19:58:20.153Z,100994.63
2023-05-05T20:00:46.503Z,100996.63
2023-05-05T20:03:12.959Z,100992.34
2023-05-05T20:05:39.326Z,100996.31
2023-05-05T20:08:05.700Z,101001.03
2023-05-05T20:10:32.123Z,101004.53
2023-05-05T20:12:58.485Z,101012.75
2023-05-05T20:15:24.882Z,101007.28
2023-05-05T20:17:51.247Z,101004.22
2023-05-05T20:20:17.666Z,101002.72
2023-05-05T20:22:43.983Z,101003.16
2023-05-05T20:25:10.318Z,101002.72
2023-05-05T20:27:36.716Z,100992.97
2023-05-05T20:30:03.078Z,100989.03
2023-05-05T20:32:29.449Z,100997.97
2023-05-05T20:34:55.757Z,100991.00
2023-05-05T20:37:22.132Z,100989.19
2023-05-05T20:39:48.514Z,100985.97
2023-05-05T20:42:14.863Z,100983.22
2023-05-05T20:44:41.193Z,100981.53
2023-05-05T20:47:07.684Z,100976.53
2023-05-05T20:49:34.052Z,100980.81
2023-05-05T20:52:00.387Z,100979.72
2023-05-05T20:54:26.690Z,100983.22
2023-05-05T20:56:52.985Z,100979.28
2023-05-05T20:59:19.342Z,100972.28
2023-05-05T21:01:45.806Z,100980.19
2023-05-05T21:04:12.291Z,100976.97
2023-05-05T21:06:38.627Z,100976.97
2023-05-05T21:09:04.960Z,100971.50
2023-05-05T21:11:31.307Z,100967.28
2023-05-05T21:13:57.687Z,100971.22
2023-05-05T21:16:24.033Z,100972.28
2023-05-05T21:18:50.343Z,100980.97
2023-05-05T21:21:16.742Z,100976.69
2023-05-05T21:23:43.089Z,100968.47
2023-05-05T21:26:09.470Z,100963.75
2023-05-05T21:28:35.842Z,100966.91
2023-05-05T21:31:20.612Z,100967.72
2023-05-05T21:33:47.911Z,100969.38
2023-05-05T21:36:14.235Z,100961.91
2023-05-05T21:38:40.588Z,100970.44
2023-05-05T21:41:06.914Z,100966.16
2023-05-05T21:43:33.228Z,100969.38
2023-05-05T21:45:59.558Z,100957.19
2023-05-05T21:48:25.936Z,100954.91
2023-05-05T21:50:52.312Z,100949.72
2023-05-05T21:53:18.687Z,100937.28
2023-05-05T21:55:44.990Z,100938.47
2023-05-05T21:58:11.337Z,100934.97
2023-05-05T22:00:37.702Z,100943.19
2023-05-05T22:03:04.117Z,100937.28
2023-05-05T22:05:30.569Z,100935.28
2023-05-05T22:07:56.938Z,100933.31
2023-05-05T22:10:23.328Z,100929.06
2023-05-05T22:12:49.700Z,100933.78
2023-05-05T22:15:16.081Z,100931.81
2023-05-05T22:17:42.428Z,100929.81
2023-05-05T22:20:09.163Z,100928.31
2023-05-05T22:22:35.798Z,100931.47
2023-05-05T22:25:02.143Z,100922.81
2023-05-05T22:27:28.474Z,100924.47
2023-05-05T22:29:55.955Z,100929.94
2023-05-05T22:32:22.276Z,100919.47
2023-05-05T22:34:48.631Z,100912.03
2023-05-05T22:37:14.994Z,100913.53
2023-05-05T22:39:41.364Z,100919.00
2023-05-05T22:42:07.683Z,100921.75
2023-05-05T22:44:34.043Z,100912.03
2023-05-05T22:47:00.449Z,100919.75
2023-05-05T22:49:26.893Z,100917.50
2023-05-05T22:51:53.217Z,100913.22
2023-05-05T22:54:19.573Z,100915.69
2023-05-05T22:56:46.366Z,100925.72
2023-05-05T22:59:12.931Z,100914.75
2023-05-05T23:01:39.662Z,100914.44
2023-05-05T23:04:06.098Z,100915.97
2023-05-05T23:06:32.469Z,100918.41
2023-05-05T23:08:58.820Z,100922.22
2023-05-05T23:11:25.141Z,100915.97
2023-05-05T23:13:51.494Z,100907.75
2023-05-05T23:16:17.890Z,100917.19
2023-05-05T23:18:44.363Z,100912.47
2023-05-05T23:21:10.683Z,100907.00
2023-05-05T23:23:37.002Z,100909.44
2023-05-05T23:26:03.344Z,100911.41
2023-05-05T23:28:29.740Z,100912.63
2023-05-05T23:30:56.097Z,100909.44
2023-05-05T23:33:22.469Z,100902.72
2023-05-05T23:35:48.783Z,100909.88
2023-05-05T23:38:15.140Z,100912.94
2023-05-05T23:40:41.501Z,100905.19
2023-05-05T23:43:07.807Z,100913.38
2023-05-05T23:45:34.102Z,100914.59
2023-05-05T23:48:00.491Z,100913.38
2023-05-05T23:50:26.962Z,100909.13
2023-05-05T23:52:53.321Z,100908.84
2023-05-05T23:55:19.678Z,100913.84
2023-05-05T23:57:46.038Z,100917.50
